sensor_id;sensor_type;location;lat;lon;timestamp;temperature;humidity
63094;DHT22;49183;51.380;0.098;2023-11-19T00:02:15;10.40;86.80
63094;DHT22;49183;51.380;0.098;2023-11-19T00:04:43;10.50;86.70
63094;DHT22;49183;51.380;0.098;2023-11-19T00:07:11;10.60;86.60
63094;DHT22;49183;51.380;0.098;2023-11-19T00:09:40;10.60;86.60
63094;DHT22;49183;51.380;0.098;2023-11-19T00:12:09;10.60;86.40
63094;DHT22;49183;51.380;0.098;2023-11-19T00:14:36;10.60;86.40
63094;DHT22;49183;51.380;0.098;2023-11-19T00:17:04;10.60;86.50
63094;DHT22;49183;51.380;0.098;2023-11-19T00:19:31;10.60;86.60
63094;DHT22;49183;51.380;0.098;2023-11-19T00:21:59;10.60;86.60
63094;DHT22;49183;51.380;0.098;2023-11-19T00:24:30;10.60;86.70
63094;DHT22;49183;51.380;0.098;2023-11-19T00:26:57;10.70;86.70
63094;DHT22;49183;51.380;0.098;2023-11-19T00:29:25;10.70;86.70
63094;DHT22;49183;51.380;0.098;2023-11-19T00:31:52;10.70;86.70
63094;DHT22;49183;51.380;0.098;2023-11-19T00:34:20;10.60;86.80
63094;DHT22;49183;51.380;0.098;2023-11-19T00:36:50;10.60;86.90
63094;DHT22;49183;51.380;0.098;2023-11-19T00:39:18;10.50;87.00
63094;DHT22;49183;51.380;0.098;2023-11-19T00:41:47;10.50;87.10
63094;DHT22;49183;51.380;0.098;2023-11-19T00:44:14;10.50;87.20
63094;DHT22;49183;51.380;0.098;2023-11-19T00:46:42;10.50;87.20
63094;DHT22;49183;51.380;0.098;2023-11-19T00:49:10;10.50;87.20
63094;DHT22;49183;51.380;0.098;2023-11-19T00:51:40;10.60;87.30
63094;DHT22;49183;51.380;0.098;2023-11-19T00:54:07;10.60;87.20
63094;DHT22;49183;51.380;0.098;2023-11-19T00:56:35;10.70;87.10
63094;DHT22;49183;51.380;0.098;2023-11-19T00:59:04;10.70;87.10
63094;DHT22;49183;51.380;0.098;2023-11-19T01:01:33;10.80;87.10
63094;DHT22;49183;51.380;0.098;2023-11-19T01:04:00;10.80;87.10
63094;DHT22;49183;51.380;0.098;2023-11-19T01:06:31;10.80;87.00
63094;DHT22;49183;51.380;0.098;2023-11-19T01:09:00;10.80;87.00
63094;DHT22;49183;51.380;0.098;2023-11-19T01:11:28;10.80;87.10
63094;DHT22;49183;51.380;0.098;2023-11-19T01:13:56;10.80;87.10
63094;DHT22;49183;51.380;0.098;2023-11-19T01:16:23;10.80;87.00
63094;DHT22;49183;51.380;0.098;2023-11-19T01:18:51;10.90;87.00
63094;DHT22;49183;51.380;0.098;2023-11-19T01:21:35;10.90;87.00
63094;DHT22;49183;51.380;0.098;2023-11-19T01:24:03;10.90;87.00
63094;DHT22;49183;51.380;0.098;2023-11-19T01:26:33;10.90;86.90
63094;DHT22;49183;51.380;0.098;2023-11-19T01:29:01;10.90;86.90
63094;DHT22;49183;51.380;0.098;2023-11-19T01:31:28;10.90;86.80
63094;DHT22;49183;51.380;0.098;2023-11-19T01:33:57;10.90;86.80
63094;DHT22;49183;51.380;0.098;2023-11-19T01:36:26;11.00;86.80
63094;DHT22;49183;51.380;0.098;2023-11-19T01:38:54;11.00;86.80
63094;DHT22;49183;51.380;0.098;2023-11-19T01:41:21;10.90;86.70
63094;DHT22;49183;51.380;0.098;2023-11-19T01:43:49;11.00;86.70
63094;DHT22;49183;51.380;0.098;2023-11-19T01:46:16;11.00;86.60
63094;DHT22;49183;51.380;0.098;2023-11-19T01:48:45;11.00;86.60
63094;DHT22;49183;51.380;0.098;2023-11-19T01:51:13;11.00;86.60
63094;DHT22;49183;51.380;0.098;2023-11-19T01:53:43;11.00;86.60
63094;DHT22;49183;51.380;0.098;2023-11-19T01:56:13;11.00;86.60
63094;DHT22;49183;51.380;0.098;2023-11-19T01:58:42;11.00;86.70
63094;DHT22;49183;51.380;0.098;2023-11-19T02:01:12;11.10;86.70
63094;DHT22;49183;51.380;0.098;2023-11-19T02:03:40;11.00;86.70
63094;DHT22;49183;51.380;0.098;2023-11-19T02:06:08;11.00;86.70
63094;DHT22;49183;51.380;0.098;2023-11-19T02:08:39;11.00;86.70
63094;DHT22;49183;51.380;0.098;2023-11-19T02:11:07;10.90;86.70
63094;DHT22;49183;51.380;0.098;2023-11-19T02:13:37;10.90;86.80
63094;DHT22;49183;51.380;0.098;2023-11-19T02:16:04;10.80;86.90
63094;DHT22;49183;51.380;0.098;2023-11-19T02:18:34;10.80;87.00
63094;DHT22;49183;51.380;0.098;2023-11-19T02:21:01;10.80;86.90
63094;DHT22;49183;51.380;0.098;2023-11-19T02:23:29;10.80;86.90
63094;DHT22;49183;51.380;0.098;2023-11-19T02:26:14;10.80;86.90
63094;DHT22;49183;51.380;0.098;2023-11-19T02:28:45;10.70;86.90
63094;DHT22;49183;51.380;0.098;2023-11-19T02:31:13;10.60;86.90
63094;DHT22;49183;51.380;0.098;2023-11-19T02:33:41;10.60;87.00
63094;DHT22;49183;51.380;0.098;2023-11-19T02:36:09;10.60;87.20
63094;DHT22;49183;51.380;0.098;2023-11-19T02:38:37;10.50;87.20
63094;DHT22;49183;51.380;0.098;2023-11-19T02:41:04;10.50;87.20
63094;DHT22;49183;51.380;0.098;2023-11-19T02:43:33;10.40;87.20
63094;DHT22;49183;51.380;0.098;2023-11-19T02:46:01;10.40;87.40
63094;DHT22;49183;51.380;0.098;2023-11-19T02:48:42;10.30;87.60
63094;DHT22;49183;51.380;0.098;2023-11-19T02:51:11;10.30;87.70
63094;DHT22;49183;51.380;0.098;2023-11-19T02:53:39;10.30;87.80
63094;DHT22;49183;51.380;0.098;2023-11-19T02:56:07;10.30;88.00
63094;DHT22;49183;51.380;0.098;2023-11-19T02:58:53;10.30;88.30
63094;DHT22;49183;51.380;0.098;2023-11-19T03:06:04;10.10;88.90
63094;DHT22;49183;51.380;0.098;2023-11-19T03:08:34;9.80;89.70
63094;DHT22;49183;51.380;0.098;2023-11-19T03:11:02;9.80;89.90
63094;DHT22;49183;51.380;0.098;2023-11-19T03:13:32;9.80;90.00
63094;DHT22;49183;51.380;0.098;2023-11-19T03:16:00;9.70;90.30
63094;DHT22;49183;51.380;0.098;2023-11-19T03:18:28;9.70;90.50
63094;DHT22;49183;51.380;0.098;2023-11-19T03:20:55;9.80;90.50
63094;DHT22;49183;51.380;0.098;2023-11-19T03:23:24;9.80;90.50
63094;DHT22;49183;51.380;0.098;2023-11-19T03:25:55;9.80;90.50
63094;DHT22;49183;51.380;0.098;2023-11-19T03:28:22;9.90;90.50
63094;DHT22;49183;51.380;0.098;2023-11-19T03:30:51;10.00;90.40
63094;DHT22;49183;51.380;0.098;2023-11-19T03:33:20;10.10;90.30
63094;DHT22;49183;51.380;0.098;2023-11-19T03:35:48;10.10;90.20
63094;DHT22;49183;51.380;0.098;2023-11-19T03:38:16;10.20;90.00
63094;DHT22;49183;51.380;0.098;2023-11-19T03:40:43;10.30;89.90
63094;DHT22;49183;51.380;0.098;2023-11-19T03:43:11;10.30;89.80
63094;DHT22;49183;51.380;0.098;2023-11-19T03:45:40;10.20;89.70
63094;DHT22;49183;51.380;0.098;2023-11-19T03:48:09;10.20;89.90
63094;DHT22;49183;51.380;0.098;2023-11-19T03:50:37;10.20;90.00
63094;DHT22;49183;51.380;0.098;2023-11-19T03:53:04;10.10;90.10
63094;DHT22;49183;51.380;0.098;2023-11-19T03:55:32;10.10;90.20
63094;DHT22;49183;51.380;0.098;2023-11-19T03:58:01;10.00;90.30
63094;DHT22;49183;51.380;0.098;2023-11-19T04:00:28;9.90;90.50
63094;DHT22;49183;51.380;0.098;2023-11-19T04:02:56;9.90;90.70
63094;DHT22;49183;51.380;0.098;2023-11-19T04:05:24;9.80;91.00
63094;DHT22;49183;51.380;0.098;2023-11-19T04:07:52;9.80;91.20
63094;DHT22;49183;51.380;0.098;2023-11-19T04:10:19;9.70;91.50
63094;DHT22;49183;51.380;0.098;2023-11-19T04:12:47;9.80;91.60
63094;DHT22;49183;51.380;0.098;2023-11-19T04:15:16;9.70;91.70
63094;DHT22;49183;51.380;0.098;2023-11-19T04:17:43;9.70;91.70
63094;DHT22;49183;51.380;0.098;2023-11-19T04:20:11;9.70;91.80
63094;DHT22;49183;51.380;0.098;2023-11-19T04:22:42;9.60;91.80
63094;DHT22;49183;51.380;0.098;2023-11-19T04:25:09;9.60;91.90
63094;DHT22;49183;51.380;0.098;2023-11-19T04:27:38;9.60;92.00
63094;DHT22;49183;51.380;0.098;2023-11-19T04:30:07;9.60;92.00
63094;DHT22;49183;51.380;0.098;2023-11-19T04:32:38;9.60;92.00
63094;DHT22;49183;51.380;0.098;2023-11-19T04:35:07;9.50;92.00
63094;DHT22;49183;51.380;0.098;2023-11-19T04:37:35;9.50;92.10
63094;DHT22;49183;51.380;0.098;2023-11-19T04:40:02;9.50;92.10
63094;DHT22;49183;51.380;0.098;2023-11-19T04:42:31;9.50;92.20
63094;DHT22;49183;51.380;0.098;2023-11-19T04:44:59;9.50;92.20
63094;DHT22;49183;51.380;0.098;2023-11-19T04:47:27;9.50;92.20
63094;DHT22;49183;51.380;0.098;2023-11-19T04:49:55;9.50;92.20
63094;DHT22;49183;51.380;0.098;2023-11-19T04:52:22;9.40;92.30
63094;DHT22;49183;51.380;0.098;2023-11-19T04:54:50;9.40;92.40
63094;DHT22;49183;51.380;0.098;2023-11-19T04:57:18;9.40;92.40
63094;DHT22;49183;51.380;0.098;2023-11-19T04:59:46;9.40;92.50
63094;DHT22;49183;51.380;0.098;2023-11-19T05:02:14;9.40;92.50
63094;DHT22;49183;51.380;0.098;2023-11-19T05:04:43;9.50;92.60
63094;DHT22;49183;51.380;0.098;2023-11-19T05:07:14;9.50;92.50
63094;DHT22;49183;51.380;0.098;2023-11-19T05:09:42;9.50;92.50
63094;DHT22;49183;51.380;0.098;2023-11-19T05:12:10;9.60;92.50
63094;DHT22;49183;51.380;0.098;2023-11-19T05:14:39;9.60;92.60
63094;DHT22;49183;51.380;0.098;2023-11-19T05:17:07;9.60;92.50
63094;DHT22;49183;51.380;0.098;2023-11-19T05:19:35;9.70;92.40
63094;DHT22;49183;51.380;0.098;2023-11-19T05:22:03;9.80;92.40
63094;DHT22;49183;51.380;0.098;2023-11-19T05:24:31;9.80;92.30
63094;DHT22;49183;51.380;0.098;2023-11-19T05:26:59;9.80;92.40
63094;DHT22;49183;51.380;0.098;2023-11-19T05:29:27;9.80;92.40
63094;DHT22;49183;51.380;0.098;2023-11-19T05:31:54;9.80;92.30
63094;DHT22;49183;51.380;0.098;2023-11-19T05:34:22;9.70;92.40
63094;DHT22;49183;51.380;0.098;2023-11-19T05:36:50;9.70;92.40
63094;DHT22;49183;51.380;0.098;2023-11-19T05:39:18;9.70;92.50
63094;DHT22;49183;51.380;0.098;2023-11-19T05:41:47;9.70;92.50
63094;DHT22;49183;51.380;0.098;2023-11-19T05:44:15;9.70;92.50
63094;DHT22;49183;51.380;0.098;2023-11-19T05:46:43;9.70;92.60
63094;DHT22;49183;51.380;0.098;2023-11-19T05:49:11;9.60;92.60
63094;DHT22;49183;51.380;0.098;2023-11-19T05:51:40;9.60;92.60
63094;DHT22;49183;51.380;0.098;2023-11-19T05:54:08;9.60;92.60
63094;DHT22;49183;51.380;0.098;2023-11-19T05:56:37;9.60;92.70
63094;DHT22;49183;51.380;0.098;2023-11-19T05:59:05;9.70;92.80
63094;DHT22;49183;51.380;0.098;2023-11-19T06:01:42;9.70;92.70
63094;DHT22;49183;51.380;0.098;2023-11-19T06:04:10;9.70;92.70
63094;DHT22;49183;51.380;0.098;2023-11-19T06:06:39;9.60;92.70
63094;DHT22;49183;51.380;0.098;2023-11-19T06:09:07;9.60;92.70
63094;DHT22;49183;51.380;0.098;2023-11-19T06:11:39;9.50;92.80
63094;DHT22;49183;51.380;0.098;2023-11-19T06:14:06;9.50;92.90
63094;DHT22;49183;51.380;0.098;2023-11-19T06:16:34;9.60;92.90
63094;DHT22;49183;51.380;0.098;2023-11-19T06:19:04;9.60;92.90
63094;DHT22;49183;51.380;0.098;2023-11-19T06:21:33;9.60;92.90
63094;DHT22;49183;51.380;0.098;2023-11-19T06:24:03;9.60;92.80
63094;DHT22;49183;51.380;0.098;2023-11-19T06:26:31;9.50;92.90
63094;DHT22;49183;51.380;0.098;2023-11-19T06:28:58;9.50;92.80
63094;DHT22;49183;51.380;0.098;2023-11-19T06:31:26;9.50;92.90
63094;DHT22;49183;51.380;0.098;2023-11-19T06:33:54;9.60;92.90
63094;DHT22;49183;51.380;0.098;2023-11-19T06:36:22;9.60;92.90
63094;DHT22;49183;51.380;0.098;2023-11-19T06:38:50;9.60;92.90
63094;DHT22;49183;51.380;0.098;2023-11-19T06:41:18;9.60;92.90
63094;DHT22;49183;51.380;0.098;2023-11-19T06:43:45;9.60;92.90
63094;DHT22;49183;51.380;0.098;2023-11-19T06:46:14;9.70;92.80
63094;DHT22;49183;51.380;0.098;2023-11-19T06:48:42;9.70;92.80
63094;DHT22;49183;51.380;0.098;2023-11-19T06:51:11;9.80;92.80
63094;DHT22;49183;51.380;0.098;2023-11-19T06:53:39;9.80;92.70
63094;DHT22;49183;51.380;0.098;2023-11-19T06:56:20;9.80;92.60
63094;DHT22;49183;51.380;0.098;2023-11-19T06:58:49;9.80;92.50
63094;DHT22;49183;51.380;0.098;2023-11-19T07:01:17;9.70;92.60
63094;DHT22;49183;51.380;0.098;2023-11-19T07:03:46;9.70;92.60
63094;DHT22;49183;51.380;0.098;2023-11-19T07:06:14;9.60;92.60
63094;DHT22;49183;51.380;0.098;2023-11-19T07:08:42;9.60;92.70
63094;DHT22;49183;51.380;0.098;2023-11-19T07:11:13;9.60;92.80
63094;DHT22;49183;51.380;0.098;2023-11-19T07:13:42;9.60;92.80
63094;DHT22;49183;51.380;0.098;2023-11-19T07:16:10;9.60;92.80
63094;DHT22;49183;51.380;0.098;2023-11-19T07:18:37;9.50;92.80
63094;DHT22;49183;51.380;0.098;2023-11-19T07:21:05;9.50;92.80
63094;DHT22;49183;51.380;0.098;2023-11-19T07:23:33;9.50;92.80
63094;DHT22;49183;51.380;0.098;2023-11-19T07:26:04;9.50;92.80
63094;DHT22;49183;51.380;0.098;2023-11-19T07:28:32;9.50;92.80
63094;DHT22;49183;51.380;0.098;2023-11-19T07:30:59;9.60;92.90
63094;DHT22;49183;51.380;0.098;2023-11-19T07:33:27;9.60;92.80
63094;DHT22;49183;51.380;0.098;2023-11-19T07:35:55;9.70;92.80
63094;DHT22;49183;51.380;0.098;2023-11-19T07:38:23;9.80;92.70
63094;DHT22;49183;51.380;0.098;2023-11-19T07:40:51;9.80;92.60
63094;DHT22;49183;51.380;0.098;2023-11-19T07:43:21;9.90;92.50
63094;DHT22;49183;51.380;0.098;2023-11-19T07:45:49;9.90;92.40
63094;DHT22;49183;51.380;0.098;2023-11-19T07:48:17;10.00;92.20
63094;DHT22;49183;51.380;0.098;2023-11-19T07:50:50;10.10;92.00
63094;DHT22;49183;51.380;0.098;2023-11-19T07:53:18;10.10;91.70
63094;DHT22;49183;51.380;0.098;2023-11-19T07:55:46;10.20;91.50
63094;DHT22;49183;51.380;0.098;2023-11-19T07:58:14;10.20;91.50
63094;DHT22;49183;51.380;0.098;2023-11-19T08:00:41;10.20;91.40
63094;DHT22;49183;51.380;0.098;2023-11-19T08:03:09;10.10;91.40
63094;DHT22;49183;51.380;0.098;2023-11-19T08:05:37;10.20;91.40
63094;DHT22;49183;51.380;0.098;2023-11-19T08:08:05;10.30;91.20
63094;DHT22;49183;51.380;0.098;2023-11-19T08:10:33;10.30;91.20
63094;DHT22;49183;51.380;0.098;2023-11-19T08:13:00;10.30;91.10
63094;DHT22;49183;51.380;0.098;2023-11-19T08:15:28;10.30;91.10
63094;DHT22;49183;51.380;0.098;2023-11-19T08:17:59;10.30;91.20
63094;DHT22;49183;51.380;0.098;2023-11-19T08:20:27;10.30;91.20
63094;DHT22;49183;51.380;0.098;2023-11-19T08:22:55;10.30;91.30
63094;DHT22;49183;51.380;0.098;2023-11-19T08:25:23;10.30;91.30
63094;DHT22;49183;51.380;0.098;2023-11-19T08:27:51;10.40;91.40
63094;DHT22;49183;51.380;0.098;2023-11-19T08:30:18;10.40;91.40
63094;DHT22;49183;51.380;0.098;2023-11-19T08:32:47;10.40;91.50
63094;DHT22;49183;51.380;0.098;2023-11-19T08:35:15;10.40;91.50
63094;DHT22;49183;51.380;0.098;2023-11-19T08:37:43;10.40;91.50
63094;DHT22;49183;51.380;0.098;2023-11-19T08:40:13;10.50;91.50
63094;DHT22;49183;51.380;0.098;2023-11-19T08:42:44;10.50;91.50
63094;DHT22;49183;51.380;0.098;2023-11-19T08:45:12;10.50;91.50
63094;DHT22;49183;51.380;0.098;2023-11-19T08:47:41;10.60;91.50
63094;DHT22;49183;51.380;0.098;2023-11-19T08:50:09;10.60;91.40
63094;DHT22;49183;51.380;0.098;2023-11-19T08:52:37;10.60;91.40
63094;DHT22;49183;51.380;0.098;2023-11-19T08:55:04;10.60;91.30
63094;DHT22;49183;51.380;0.098;2023-11-19T08:57:32;10.60;91.30
63094;DHT22;49183;51.380;0.098;2023-11-19T09:00:00;10.50;91.40
63094;DHT22;49183;51.380;0.098;2023-11-19T09:02:28;10.50;91.50
63094;DHT22;49183;51.380;0.098;2023-11-19T09:04:55;10.50;91.60
63094;DHT22;49183;51.380;0.098;2023-11-19T09:07:23;10.50;91.70
63094;DHT22;49183;51.380;0.098;2023-11-19T09:09:51;10.60;91.80
63094;DHT22;49183;51.380;0.098;2023-11-19T09:12:18;10.60;91.80
63094;DHT22;49183;51.380;0.098;2023-11-19T09:14:46;10.70;91.80
63094;DHT22;49183;51.380;0.098;2023-11-19T09:17:14;10.80;91.80
63094;DHT22;49183;51.380;0.098;2023-11-19T09:19:41;10.80;91.70
63094;DHT22;49183;51.380;0.098;2023-11-19T09:22:09;10.80;91.60
63094;DHT22;49183;51.380;0.098;2023-11-19T09:24:37;10.90;91.50
63094;DHT22;49183;51.380;0.098;2023-11-19T09:27:05;10.90;91.40
63094;DHT22;49183;51.380;0.098;2023-11-19T09:29:34;10.90;91.30
63094;DHT22;49183;51.380;0.098;2023-11-19T09:32:01;11.00;91.30
63094;DHT22;49183;51.380;0.098;2023-11-19T09:34:32;11.10;91.20
63094;DHT22;49183;51.380;0.098;2023-11-19T09:37:00;11.10;91.00
63094;DHT22;49183;51.380;0.098;2023-11-19T09:39:27;11.20;90.90
63094;DHT22;49183;51.380;0.098;2023-11-19T09:41:55;11.20;90.80
63094;DHT22;49183;51.380;0.098;2023-11-19T09:44:23;11.20;90.70
63094;DHT22;49183;51.380;0.098;2023-11-19T09:46:54;11.30;90.60
63094;DHT22;49183;51.380;0.098;2023-11-19T09:49:22;11.40;90.40
63094;DHT22;49183;51.380;0.098;2023-11-19T09:51:55;11.40;90.20
63094;DHT22;49183;51.380;0.098;2023-11-19T09:54:23;11.40;90.00
63094;DHT22;49183;51.380;0.098;2023-11-19T09:56:50;11.40;89.90
63094;DHT22;49183;51.380;0.098;2023-11-19T09:59:18;11.50;89.70
63094;DHT22;49183;51.380;0.098;2023-11-19T10:01:47;11.50;89.30
63094;DHT22;49183;51.380;0.098;2023-11-19T10:04:15;11.50;89.10
63094;DHT22;49183;51.380;0.098;2023-11-19T10:06:44;11.60;89.00
63094;DHT22;49183;51.380;0.098;2023-11-19T10:09:12;11.60;88.80
63094;DHT22;49183;51.380;0.098;2023-11-19T10:11:42;11.70;88.80
63094;DHT22;49183;51.380;0.098;2023-11-19T10:14:10;11.70;88.80
63094;DHT22;49183;51.380;0.098;2023-11-19T10:16:38;11.70;88.50
63094;DHT22;49183;51.380;0.098;2023-11-19T10:19:06;11.70;88.50
63094;DHT22;49183;51.380;0.098;2023-11-19T10:21:33;11.60;88.60
63094;DHT22;49183;51.380;0.098;2023-11-19T10:24:01;11.60;88.90
63094;DHT22;49183;51.380;0.098;2023-11-19T10:26:29;11.60;89.00
63094;DHT22;49183;51.380;0.098;2023-11-19T10:28:57;11.50;89.20
63094;DHT22;49183;51.380;0.098;2023-11-19T10:31:25;11.60;89.40
63094;DHT22;49183;51.380;0.098;2023-11-19T10:33:54;11.60;89.50
63094;DHT22;49183;51.380;0.098;2023-11-19T10:36:22;11.60;89.50
63094;DHT22;49183;51.380;0.098;2023-11-19T10:38:52;11.80;89.70
63094;DHT22;49183;51.380;0.098;2023-11-19T10:41:27;11.80;89.60
63094;DHT22;49183;51.380;0.098;2023-11-19T10:43:55;11.90;89.40
63094;DHT22;49183;51.380;0.098;2023-11-19T10:46:23;11.90;89.40
63094;DHT22;49183;51.380;0.098;2023-11-19T10:49:03;12.10;89.30
63094;DHT22;49183;51.380;0.098;2023-11-19T10:51:31;12.20;89.20
63094;DHT22;49183;51.380;0.098;2023-11-19T10:54:01;12.30;88.90
63094;DHT22;49183;51.380;0.098;2023-11-19T10:56:30;12.30;88.70
63094;DHT22;49183;51.380;0.098;2023-11-19T10:58:59;12.30;88.50
63094;DHT22;49183;51.380;0.098;2023-11-19T11:01:39;12.40;88.40
63094;DHT22;49183;51.380;0.098;2023-11-19T11:04:14;12.40;88.40
63094;DHT22;49183;51.380;0.098;2023-11-19T11:06:50;12.40;88.50
63094;DHT22;49183;51.380;0.098;2023-11-19T11:09:18;12.40;88.50
63094;DHT22;49183;51.380;0.098;2023-11-19T11:11:47;12.30;88.70
63094;DHT22;49183;51.380;0.098;2023-11-19T11:14:15;12.30;88.90
63094;DHT22;49183;51.380;0.098;2023-11-19T11:16:43;12.30;89.00
63094;DHT22;49183;51.380;0.098;2023-11-19T11:19:12;12.30;89.20
63094;DHT22;49183;51.380;0.098;2023-11-19T11:21:41;12.30;89.20
63094;DHT22;49183;51.380;0.098;2023-11-19T11:24:14;12.30;89.20
63094;DHT22;49183;51.380;0.098;2023-11-19T11:39:47;12.20;89.30
63094;DHT22;49183;51.380;0.098;2023-11-19T11:50:10;12.00;90.40
63094;DHT22;49183;51.380;0.098;2023-11-19T11:57:55;12.00;90.80
63094;DHT22;49183;51.380;0.098;2023-11-19T12:02:57;12.00;91.00
63094;DHT22;49183;51.380;0.098;2023-11-19T12:05:26;12.10;91.00
63094;DHT22;49183;51.380;0.098;2023-11-19T12:08:03;12.20;91.00
63094;DHT22;49183;51.380;0.098;2023-11-19T12:10:32;12.30;90.90
63094;DHT22;49183;51.380;0.098;2023-11-19T12:13:00;12.40;90.80
63094;DHT22;49183;51.380;0.098;2023-11-19T12:15:28;12.40;90.70
63094;DHT22;49183;51.380;0.098;2023-11-19T12:17:56;12.40;90.70
63094;DHT22;49183;51.380;0.098;2023-11-19T12:20:24;12.50;90.60
63094;DHT22;49183;51.380;0.098;2023-11-19T12:22:55;12.60;90.40
63094;DHT22;49183;51.380;0.098;2023-11-19T12:25:23;12.60;90.40
63094;DHT22;49183;51.380;0.098;2023-11-19T12:27:51;12.80;90.30
63094;DHT22;49183;51.380;0.098;2023-11-19T12:30:21;12.80;90.20
63094;DHT22;49183;51.380;0.098;2023-11-19T12:32:50;12.80;90.10
63094;DHT22;49183;51.380;0.098;2023-11-19T12:35:18;12.90;90.00
63094;DHT22;49183;51.380;0.098;2023-11-19T12:37:47;13.00;89.90
63094;DHT22;49183;51.380;0.098;2023-11-19T12:42:49;13.00;89.80
63094;DHT22;49183;51.380;0.098;2023-11-19T12:45:17;13.10;89.70
63094;DHT22;49183;51.380;0.098;2023-11-19T12:47:46;13.00;89.70
63094;DHT22;49183;51.380;0.098;2023-11-19T12:50:16;13.00;89.70
63094;DHT22;49183;51.380;0.098;2023-11-19T12:52:56;13.00;89.70
63094;DHT22;49183;51.380;0.098;2023-11-19T12:55:26;12.90;89.80
63094;DHT22;49183;51.380;0.098;2023-11-19T12:57:57;12.90;89.90
63094;DHT22;49183;51.380;0.098;2023-11-19T13:00:27;12.80;90.10
63094;DHT22;49183;51.380;0.098;2023-11-19T13:02:55;12.80;90.30
63094;DHT22;49183;51.380;0.098;2023-11-19T13:08:02;12.70;90.60
63094;DHT22;49183;51.380;0.098;2023-11-19T13:10:30;12.70;90.70
63094;DHT22;49183;51.380;0.098;2023-11-19T13:12:59;12.60;90.90
63094;DHT22;49183;51.380;0.098;2023-11-19T13:15:27;12.60;90.90
63094;DHT22;49183;51.380;0.098;2023-11-19T13:17:56;12.60;91.00
63094;DHT22;49183;51.380;0.098;2023-11-19T13:20:24;12.60;91.10
63094;DHT22;49183;51.380;0.098;2023-11-19T13:22:59;12.60;91.10
63094;DHT22;49183;51.380;0.098;2023-11-19T13:25:27;12.60;91.10
63094;DHT22;49183;51.380;0.098;2023-11-19T13:27:55;12.60;91.20
63094;DHT22;49183;51.380;0.098;2023-11-19T13:30:23;12.60;91.20
63094;DHT22;49183;51.380;0.098;2023-11-19T13:32:54;12.60;91.30
63094;DHT22;49183;51.380;0.098;2023-11-19T13:35:23;12.70;91.30
63094;DHT22;49183;51.380;0.098;2023-11-19T13:37:50;12.70;91.20
63094;DHT22;49183;51.380;0.098;2023-11-19T13:40:19;12.80;91.20
63094;DHT22;49183;51.380;0.098;2023-11-19T13:42:49;12.80;91.10
63094;DHT22;49183;51.380;0.098;2023-11-19T13:45:17;12.80;91.00
63094;DHT22;49183;51.380;0.098;2023-11-19T13:47:45;12.80;90.90
63094;DHT22;49183;51.380;0.098;2023-11-19T13:50:14;12.80;90.80
63094;DHT22;49183;51.380;0.098;2023-11-19T13:52:43;12.90;90.70
63094;DHT22;49183;51.380;0.098;2023-11-19T13:55:12;12.90;90.70
63094;DHT22;49183;51.380;0.098;2023-11-19T13:57:41;13.00;90.50
63094;DHT22;49183;51.380;0.098;2023-11-19T14:00:09;12.90;90.40
63094;DHT22;49183;51.380;0.098;2023-11-19T14:02:45;12.90;90.40
63094;DHT22;49183;51.380;0.098;2023-11-19T14:05:15;12.90;90.40
63094;DHT22;49183;51.380;0.098;2023-11-19T14:08:05;12.90;90.30
63094;DHT22;49183;51.380;0.098;2023-11-19T14:10:52;12.90;90.30
63094;DHT22;49183;51.380;0.098;2023-11-19T14:13:23;12.90;90.30
63094;DHT22;49183;51.380;0.098;2023-11-19T14:15:51;12.90;90.30
63094;DHT22;49183;51.380;0.098;2023-11-19T14:18:19;12.90;90.30
63094;DHT22;49183;51.380;0.098;2023-11-19T14:20:46;12.90;90.30
63094;DHT22;49183;51.380;0.098;2023-11-19T14:23:14;12.90;90.30
63094;DHT22;49183;51.380;0.098;2023-11-19T14:25:42;12.90;90.20
63094;DHT22;49183;51.380;0.098;2023-11-19T14:28:10;12.90;90.20
63094;DHT22;49183;51.380;0.098;2023-11-19T14:30:37;12.80;90.20
63094;DHT22;49183;51.380;0.098;2023-11-19T14:33:05;12.80;90.10
63094;DHT22;49183;51.380;0.098;2023-11-19T14:35:34;12.80;90.10
63094;DHT22;49183;51.380;0.098;2023-11-19T14:38:01;12.80;90.10
63094;DHT22;49183;51.380;0.098;2023-11-19T14:40:32;12.80;90.00
63094;DHT22;49183;51.380;0.098;2023-11-19T14:43:05;12.80;90.00
63094;DHT22;49183;51.380;0.098;2023-11-19T14:45:33;12.80;90.00
63094;DHT22;49183;51.380;0.098;2023-11-19T14:48:11;12.80;89.90
63094;DHT22;49183;51.380;0.098;2023-11-19T14:50:39;12.80;89.90
63094;DHT22;49183;51.380;0.098;2023-11-19T14:53:06;12.80;90.00
63094;DHT22;49183;51.380;0.098;2023-11-19T14:55:34;12.70;90.00
63094;DHT22;49183;51.380;0.098;2023-11-19T14:58:02;12.70;90.00
63094;DHT22;49183;51.380;0.098;2023-11-19T15:00:37;12.70;90.00
63094;DHT22;49183;51.380;0.098;2023-11-19T15:03:05;12.70;90.00
63094;DHT22;49183;51.380;0.098;2023-11-19T15:05:34;12.70;90.00
63094;DHT22;49183;51.380;0.098;2023-11-19T15:08:02;12.70;90.00
63094;DHT22;49183;51.380;0.098;2023-11-19T15:10:30;12.70;90.00
63094;DHT22;49183;51.380;0.098;2023-11-19T15:12:58;12.70;89.80
63094;DHT22;49183;51.380;0.098;2023-11-19T15:15:25;12.70;89.70
63094;DHT22;49183;51.380;0.098;2023-11-19T15:17:56;12.70;89.70
63094;DHT22;49183;51.380;0.098;2023-11-19T15:20:24;12.60;89.60
63094;DHT22;49183;51.380;0.098;2023-11-19T15:22:51;12.60;89.50
63094;DHT22;49183;51.380;0.098;2023-11-19T15:25:19;12.60;89.40
63094;DHT22;49183;51.380;0.098;2023-11-19T15:27:46;12.60;89.30
63094;DHT22;49183;51.380;0.098;2023-11-19T15:30:15;12.60;89.20
63094;DHT22;49183;51.380;0.098;2023-11-19T15:32:43;12.60;89.10
63094;DHT22;49183;51.380;0.098;2023-11-19T15:35:11;12.50;89.00
63094;DHT22;49183;51.380;0.098;2023-11-19T15:37:41;12.50;88.90
63094;DHT22;49183;51.380;0.098;2023-11-19T15:40:11;12.50;88.90
63094;DHT22;49183;51.380;0.098;2023-11-19T15:42:40;12.50;88.90
63094;DHT22;49183;51.380;0.098;2023-11-19T15:45:08;12.50;88.90
63094;DHT22;49183;51.380;0.098;2023-11-19T15:47:36;12.50;88.90
63094;DHT22;49183;51.380;0.098;2023-11-19T15:50:05;12.40;88.90
63094;DHT22;49183;51.380;0.098;2023-11-19T15:52:33;12.40;88.90
63094;DHT22;49183;51.380;0.098;2023-11-19T15:55:01;12.40;88.90
63094;DHT22;49183;51.380;0.098;2023-11-19T15:57:29;12.40;88.90
63094;DHT22;49183;51.380;0.098;2023-11-19T15:59:56;12.30;88.90
63094;DHT22;49183;51.380;0.098;2023-11-19T16:02:24;12.30;89.00
63094;DHT22;49183;51.380;0.098;2023-11-19T16:04:52;12.30;89.10
63094;DHT22;49183;51.380;0.098;2023-11-19T16:07:19;12.30;89.20
63094;DHT22;49183;51.380;0.098;2023-11-19T16:09:47;12.20;89.30
63094;DHT22;49183;51.380;0.098;2023-11-19T16:12:15;12.20;89.30
63094;DHT22;49183;51.380;0.098;2023-11-19T16:14:43;12.20;89.40
63094;DHT22;49183;51.380;0.098;2023-11-19T16:17:12;12.10;89.50
63094;DHT22;49183;51.380;0.098;2023-11-19T16:19:40;12.10;89.60
63094;DHT22;49183;51.380;0.098;2023-11-19T16:22:08;12.10;89.60
63094;DHT22;49183;51.380;0.098;2023-11-19T16:24:38;12.10;89.70